Portada
METAR-TAF:

METAR-TAF

Aeropuertos :

Aeropuerto Internacional Ivato

Antananarivo, Madagascar

latitud: 18-48S, longitud: 047-29E, altitud: 1279 m

Observación

El informe se hizo hace 19 minutos, a las 06:30 UTC
Viento 8 kt del sur-sureste, variando entre este-sureste y sur
Temperatura 15°C
Humedad 72%
Presión 1028 hPa
Visibilidad 10 km o más
Escasas nubes a una altura de 2000 ft

METAR: FMMI 220630Z 16008KT 120V190 9999 FEW020 15/10 Q1028 NOSIG

Hora: 09:49 (06:49 UTC)

Pronóstico

El informe se hizo hace 1 hora y 49 minutos, a las 05:00 UTC
Pronóstico válido del 22 a las 06 UTC al 23 a las 12 UTC
Viento 8 kt del sureste
Visibilidad 10 km o más
Escasas nubes a una altura de 1700 ft
Nubes dispersas a una altura de 2000 ft
Probabilidad 40% :
Temporalmente
del 23 a las 04 UTC al 23 a las 12 UTC
Viento 15 kt del este-sureste con ráfagas de 25 kt

TAF: FMMI 220500Z 2206/2312 14008KT 9999 FEW017 SCT020 PROB40 TEMPO 2304/2312 12015G25KT

Observaciones y pronósticos meteorológicos de más de 4000 aeropuertos (mensajes METAR y TAF).

Los puntos amarillos y rojos representan las estaciones disponibles.

Ponga el ratón en el punto deseado para ver el nombre de la estación.

Haga clic para ver las observaciones y los pronósticos meteorológicos.

Para cambiar el mapa : haga clic en los botones verdes con una cruz de color negro para hacer un zoom, en el botón verde con un guión para alejar o en las flechas verdes para mapas adyacentes.


METAR-TAF: